Time;durP1;ratioP1;P1;durP2;ratioP2;P2;SDS_P1;SDS_P2;PMS_P1;PMS_P2;Temp;Humidity;BMP_temperature;BMP_pressure;BME280_temperature;BME280_humidity;BME280_pressure;Samples;Min_cycle;Max_cycle;Signal;HPM_P1;HPM_P2
2020/12/20 00:01:12;;;;;;;45.40;19.00;;;;;;;;;;730647;189;919434;-66
2020/12/20 00:03:38;;;;;;;57.33;22.23;;;;;;;;;;736848;189;888651;-66
2020/12/20 00:06:04;;;;;;;45.30;19.90;;;;;;;;;;736919;188;918993;-66
2020/12/20 00:08:29;;;;;;;54.00;23.83;;;;;;;;;;733400;189;918521;-65
2020/12/20 00:10:55;;;;;;;44.47;20.33;;;;;;;;;;737020;189;919426;-67
2020/12/20 00:13:21;;;;;;;50.25;22.40;;;;;;;;;;738931;188;919304;-67
2020/12/20 00:15:47;;;;;;;61.03;19.70;;;;;;;;;;737997;188;919036;-66
2020/12/20 00:18:13;;;;;;;49.97;20.77;;;;;;;;;;731569;188;1209722;-67
2020/12/20 00:20:39;;;;;;;53.43;21.07;;;;;;;;;;737960;189;920440;-66
2020/12/20 00:23:05;;;;;;;49.67;21.70;;;;;;;;;;733760;188;921975;-67
2020/12/20 00:25:30;;;;;;;42.77;21.03;;;;;;;;;;735298;188;917719;-67
2020/12/20 00:27:56;;;;;;;46.87;20.37;;;;;;;;;;737651;189;918843;-67
2020/12/20 00:30:22;;;;;;;55.63;22.47;;;;;;;;;;736560;189;918455;-66
2020/12/20 00:32:50;;;;;;;49.43;19.63;;;;;;;;;;738252;188;918844;-65
2020/12/20 00:35:14;;;;;;;45.10;20.30;;;;;;;;;;732301;188;915202;-66
2020/12/20 00:37:40;;;;;;;46.57;19.90;;;;;;;;;;730121;189;916987;-67
2020/12/20 00:40:05;;;;;;;36.50;19.33;;;;;;;;;;732026;188;919706;-66
2020/12/20 00:42:31;;;;;;;43.75;17.48;;;;;;;;;;736940;188;918732;-66
2020/12/20 00:44:57;;;;;;;42.67;19.53;;;;;;;;;;736658;189;919774;-65
2020/12/20 00:47:23;;;;;;;43.27;20.53;;;;;;;;;;731983;189;915414;-67
2020/12/20 00:49:49;;;;;;;44.67;20.50;;;;;;;;;;734261;187;915478;-67
2020/12/20 00:52:15;;;;;;;44.97;19.10;;;;;;;;;;740324;187;910343;-66
2020/12/20 00:54:41;;;;;;;47.47;19.23;;;;;;;;;;736444;187;968464;-67
2020/12/20 00:57:07;;;;;;;41.53;18.47;;;;;;;;;;739057;188;923412;-66
2020/12/20 00:59:32;;;;;;;52.17;22.17;;;;;;;;;;738209;188;919007;-67
2020/12/20 01:01:58;;;;;;;46.03;20.77;;;;;;;;;;732997;188;1011295;-66
2020/12/20 01:04:24;;;;;;;48.22;18.83;;;;;;;;;;731845;188;919407;-67
2020/12/20 01:06:50;;;;;;;47.50;21.43;;;;;;;;;;733834;188;919218;-66
2020/12/20 01:09:16;;;;;;;55.97;20.40;;;;;;;;;;736089;189;919054;-67
2020/12/20 01:11:41;;;;;;;45.40;20.40;;;;;;;;;;729786;188;919638;-67
2020/12/20 01:14:07;;;;;;;35.17;18.17;;;;;;;;;;733398;189;918489;-66
2020/12/20 01:16:33;;;;;;;51.57;23.00;;;;;;;;;;738368;188;919443;-66
2020/12/20 01:18:59;;;;;;;48.50;19.67;;;;;;;;;;738191;189;919836;-66
2020/12/20 01:21:25;;;;;;;41.67;20.45;;;;;;;;;;729886;189;919293;-66
2020/12/20 01:23:51;;;;;;;51.77;22.73;;;;;;;;;;733674;189;919725;-67
2020/12/20 01:26:16;;;;;;;47.33;20.20;;;;;;;;;;731447;188;919117;-65
2020/12/20 01:28:42;;;;;;;42.73;18.90;;;;;;;;;;736861;189;920363;-66
2020/12/20 01:31:08;;;;;;;42.97;18.23;;;;;;;;;;731320;188;893807;-65
2020/12/20 01:33:35;;;;;;;47.80;22.10;;;;;;;;;;736845;189;919096;-66
2020/12/20 01:36:02;;;;;;;43.50;22.17;;;;;;;;;;728885;190;920540;-67
2020/12/20 01:38:28;;;;;;;49.00;22.30;;;;;;;;;;731984;189;918841;-66
2020/12/20 01:40:54;;;;;;;46.53;18.33;;;;;;;;;;737992;189;919120;-66
2020/12/20 01:43:20;;;;;;;44.97;18.90;;;;;;;;;;736516;189;925684;-66
2020/12/20 01:45:48;;;;;;;57.15;21.12;;;;;;;;;;735565;189;918259;-67
2020/12/20 01:48:14;;;;;;;44.77;21.70;;;;;;;;;;736946;189;916372;-66
2020/12/20 01:50:40;;;;;;;50.50;21.30;;;;;;;;;;731855;189;920122;-67
2020/12/20 01:53:05;;;;;;;40.90;20.23;;;;;;;;;;729288;189;1246056;-67
2020/12/20 01:55:31;;;;;;;40.93;19.67;;;;;;;;;;733017;188;919652;-66
2020/12/20 01:57:57;;;;;;;46.00;19.33;;;;;;;;;;735854;188;918652;-66
2020/12/20 02:00:23;;;;;;;56.97;20.77;;;;;;;;;;733930;188;919429;-65
2020/12/20 02:02:49;;;;;;;45.77;17.97;;;;;;;;;;735845;188;919981;-67
2020/12/20 02:05:15;;;;;;;60.87;24.30;;;;;;;;;;742807;188;920515;-66
2020/12/20 02:07:40;;;;;;;52.40;20.80;;;;;;;;;;735417;188;919086;-66
2020/12/20 02:10:06;;;;;;;43.13;19.80;;;;;;;;;;737803;188;919086;-66
2020/12/20 02:12:32;;;;;;;45.97;19.90;;;;;;;;;;738253;188;921950;-66
2020/12/20 02:14:58;;;;;;;45.07;17.97;;;;;;;;;;739106;188;918797;-66
2020/12/20 02:17:24;;;;;;;46.70;18.20;;;;;;;;;;729431;188;1211150;-67
2020/12/20 02:19:50;;;;;;;42.20;18.70;;;;;;;;;;734944;189;919096;-65
2020/12/20 02:22:17;;;;;;;58.58;19.08;;;;;;;;;;730723;190;918490;-67
2020/12/20 02:24:43;;;;;;;38.93;18.33;;;;;;;;;;726969;189;919451;-66
2020/12/20 02:27:09;;;;;;;40.60;16.90;;;;;;;;;;734790;189;918863;-66
2020/12/20 02:29:35;;;;;;;40.63;16.45;;;;;;;;;;735212;189;918822;-66
2020/12/20 02:32:01;;;;;;;41.30;18.50;;;;;;;;;;733433;189;920347;-67
2020/12/20 02:34:27;;;;;;;38.73;16.00;;;;;;;;;;732553;189;918982;-66
2020/12/20 02:36:52;;;;;;;39.00;16.83;;;;;;;;;;738891;188;919087;-67
2020/12/20 02:39:18;;;;;;;42.30;16.10;;;;;;;;;;732642;187;1307389;-67
2020/12/20 02:41:44;;;;;;;43.17;16.50;;;;;;;;;;732917;189;918501;-66
2020/12/20 02:44:10;;;;;;;43.90;15.43;;;;;;;;;;737177;189;916863;-66
2020/12/20 02:46:36;;;;;;;42.33;17.30;;;;;;;;;;735495;189;935519;-66
2020/12/20 02:49:02;;;;;;;42.23;16.53;;;;;;;;;;728789;189;921295;-66
2020/12/20 02:51:27;;;;;;;41.60;17.33;;;;;;;;;;734604;188;920490;-66
2020/12/20 02:53:53;;;;;;;39.40;15.40;;;;;;;;;;736270;189;935478;-67
2020/12/20 02:56:22;;;;;;;36.97;16.80;;;;;;;;;;732528;188;920851;-66
2020/12/20 02:58:46;;;;;;;36.67;16.37;;;;;;;;;;729110;188;1647794;-67
2020/12/20 03:01:12;;;;;;;39.23;14.33;;;;;;;;;;739824;188;919520;-65
2020/12/20 03:03:38;;;;;;;38.80;14.80;;;;;;;;;;734584;188;919473;-66
2020/12/20 03:06:03;;;;;;;30.30;12.40;;;;;;;;;;732840;188;921759;-66
2020/12/20 03:08:29;;;;;;;33.80;15.17;;;;;;;;;;734605;187;913499;-66
2020/12/20 03:10:55;;;;;;;29.00;14.83;;;;;;;;;;736219;188;909338;-67
2020/12/20 03:13:21;;;;;;;29.52;11.20;;;;;;;;;;739198;186;915603;-66
2020/12/20 03:15:47;;;;;;;32.77;13.87;;;;;;;;;;733783;188;915906;-65
2020/12/20 03:18:13;;;;;;;32.23;13.50;;;;;;;;;;736556;190;915775;-67
2020/12/20 03:20:39;;;;;;;29.87;13.70;;;;;;;;;;732267;187;1058344;-66
2020/12/20 03:23:04;;;;;;;36.13;13.90;;;;;;;;;;733535;187;918275;-65
2020/12/20 03:25:31;;;;;;;32.60;13.50;;;;;;;;;;739691;188;722821;-67
2020/12/20 03:27:57;;;;;;;31.13;14.27;;;;;;;;;;734499;188;919167;-67
2020/12/20 03:30:23;;;;;;;31.13;13.97;;;;;;;;;;731913;188;919768;-65
2020/12/20 03:32:49;;;;;;;36.07;13.30;;;;;;;;;;740609;187;918745;-66
2020/12/20 03:35:14;;;;;;;33.33;15.63;;;;;;;;;;733205;189;918024;-66
2020/12/20 03:37:40;;;;;;;28.07;13.70;;;;;;;;;;735798;189;918966;-67
2020/12/20 03:40:06;;;;;;;33.40;14.68;;;;;;;;;;739159;189;919236;-66
2020/12/20 03:42:32;;;;;;;30.30;13.27;;;;;;;;;;733729;189;918522;-67
2020/12/20 03:44:58;;;;;;;34.63;14.77;;;;;;;;;;736637;189;918097;-66
2020/12/20 03:47:24;;;;;;;35.07;14.67;;;;;;;;;;728211;188;975112;-66
2020/12/20 03:49:49;;;;;;;32.53;14.90;;;;;;;;;;734804;190;919264;-66
2020/12/20 03:52:15;;;;;;;32.07;13.90;;;;;;;;;;730067;188;926252;-66
2020/12/20 03:54:41;;;;;;;39.03;15.80;;;;;;;;;;732056;189;918539;-66
2020/12/20 03:57:08;;;;;;;36.63;15.97;;;;;;;;;;737590;189;917446;-65
2020/12/20 03:59:38;;;;;;;35.70;14.50;;;;;;;;;;735233;189;1020918;-67
2020/12/20 04:01:59;;;;;;;40.37;15.90;;;;;;;;;;731945;189;918479;-66
2020/12/20 04:04:25;;;;;;;41.13;13.40;;;;;;;;;;740560;187;919511;-67
2020/12/20 04:06:50;;;;;;;28.50;13.43;;;;;;;;;;729565;189;1026871;-67
2020/12/20 04:09:16;;;;;;;43.07;16.73;;;;;;;;;;738285;188;917877;-66
2020/12/20 04:11:42;;;;;;;35.00;14.60;;;;;;;;;;729801;189;918227;-65
2020/12/20 04:14:08;;;;;;;52.67;17.30;;;;;;;;;;730699;189;816912;-67
2020/12/20 04:16:34;;;;;;;30.30;15.07;;;;;;;;;;731797;189;919088;-67
2020/12/20 04:19:00;;;;;;;41.03;17.62;;;;;;;;;;729749;188;918870;-67
2020/12/20 04:21:25;;;;;;;36.20;17.70;;;;;;;;;;741043;189;918558;-66
2020/12/20 04:23:51;;;;;;;47.13;18.40;;;;;;;;;;734219;188;919059;-66
2020/12/20 04:26:17;;;;;;;44.33;18.07;;;;;;;;;;736416;188;918875;-67
2020/12/20 04:28:43;;;;;;;44.03;17.57;;;;;;;;;;736748;187;1266261;-69
2020/12/20 04:31:09;;;;;;;49.65;18.42;;;;;;;;;;736519;188;920969;-67
2020/12/20 04:33:39;;;;;;;46.40;21.03;;;;;;;;;;736115;188;917866;-67
2020/12/20 04:36:01;;;;;;;48.00;19.77;;;;;;;;;;737221;188;919339;-66
2020/12/20 04:38:26;;;;;;;42.00;20.40;;;;;;;;;;731807;187;919144;-65
2020/12/20 04:40:52;;;;;;;40.90;16.07;;;;;;;;;;735740;188;919276;-67
2020/12/20 04:43:21;;;;;;;47.30;20.43;;;;;;;;;;730986;189;916291;-67
2020/12/20 04:45:44;;;;;;;42.27;18.47;;;;;;;;;;740915;188;915124;-67
2020/12/20 04:48:10;;;;;;;44.93;18.70;;;;;;;;;;735251;188;916471;-66
2020/12/20 04:50:36;;;;;;;45.80;20.47;;;;;;;;;;736125;188;921296;-67
2020/12/20 04:53:03;;;;;;;38.23;18.27;;;;;;;;;;741033;188;906196;-66
2020/12/20 04:55:29;;;;;;;52.43;22.27;;;;;;;;;;737022;189;1009708;-66
2020/12/20 04:57:55;;;;;;;58.27;19.50;;;;;;;;;;736350;188;918805;-67
2020/12/20 05:00:21;;;;;;;41.60;18.63;;;;;;;;;;737240;189;918395;-66
2020/12/20 05:02:47;;;;;;;67.00;20.40;;;;;;;;;;734180;189;918656;-66
2020/12/20 05:05:13;;;;;;;52.27;20.10;;;;;;;;;;732286;188;915453;-66
2020/12/20 05:07:38;;;;;;;45.80;19.97;;;;;;;;;;733369;189;915912;-66
2020/12/20 05:10:04;;;;;;;48.22;19.17;;;;;;;;;;730929;189;921175;-66
2020/12/20 05:12:30;;;;;;;40.87;20.70;;;;;;;;;;729908;188;916497;-67
2020/12/20 05:14:56;;;;;;;61.33;18.70;;;;;;;;;;730031;188;1151668;-67
2020/12/20 05:17:22;;;;;;;50.30;17.70;;;;;;;;;;741176;189;915830;-66
2020/12/20 05:19:48;;;;;;;65.30;19.53;;;;;;;;;;729765;188;915918;-67
2020/12/20 05:22:15;;;;;;;52.07;19.53;;;;;;;;;;735065;188;953228;-66
2020/12/20 05:24:41;;;;;;;52.83;20.83;;;;;;;;;;734955;189;916447;-67
2020/12/20 05:27:07;;;;;;;63.10;19.60;;;;;;;;;;731461;189;925697;-66
2020/12/20 05:29:33;;;;;;;44.43;18.93;;;;;;;;;;731509;188;916694;-66
2020/12/20 05:31:59;;;;;;;41.40;17.17;;;;;;;;;;733597;188;915138;-67
2020/12/20 05:34:25;;;;;;;49.57;19.30;;;;;;;;;;733452;189;914067;-66
2020/12/20 05:36:50;;;;;;;54.33;20.00;;;;;;;;;;729501;187;919685;-66
2020/12/20 05:39:16;;;;;;;49.40;20.10;;;;;;;;;;732357;187;1601989;-65
2020/12/20 05:41:42;;;;;;;49.50;20.30;;;;;;;;;;738436;188;918191;-66
2020/12/20 05:44:24;;;;;;;56.60;21.03;;;;;;;;;;736513;188;921220;-66
2020/12/20 05:46:49;;;;;;;51.30;19.05;;;;;;;;;;734447;188;916472;-67
2020/12/20 05:49:17;;;;;;;49.30;20.20;;;;;;;;;;734201;188;919903;-67
2020/12/20 05:51:49;;;;;;;62.60;20.43;;;;;;;;;;737512;187;1072884;-66
2020/12/20 05:54:15;;;;;;;46.80;20.70;;;;;;;;;;734393;189;919183;-67
2020/12/20 05:56:41;;;;;;;56.90;20.53;;;;;;;;;;715177;188;2675110;-66
2020/12/20 05:59:07;;;;;;;49.10;18.77;;;;;;;;;;734712;189;919188;-66
2020/12/20 06:01:32;;;;;;;47.45;18.60;;;;;;;;;;736697;188;952743;-67
2020/12/20 06:03:58;;;;;;;59.40;19.50;;;;;;;;;;735086;189;919112;-65
2020/12/20 06:06:24;;;;;;;39.37;17.37;;;;;;;;;;730216;189;918894;-67
2020/12/20 06:08:50;;;;;;;44.03;17.43;;;;;;;;;;740859;189;918553;-66
2020/12/20 06:11:16;;;;;;;45.17;15.90;;;;;;;;;;734348;188;918857;-67
2020/12/20 06:13:42;;;;;;;47.33;18.93;;;;;;;;;;733586;189;919643;-66
2020/12/20 06:16:08;;;;;;;42.83;17.63;;;;;;;;;;741231;189;918723;-66
2020/12/20 06:18:34;;;;;;;54.23;18.60;;;;;;;;;;732454;188;918881;-67
2020/12/20 06:21:02;;;;;;;42.93;17.93;;;;;;;;;;732573;189;918940;-67
2020/12/20 06:23:28;;;;;;;47.40;19.53;;;;;;;;;;732826;188;950725;-66
2020/12/20 06:25:54;;;;;;;49.17;19.77;;;;;;;;;;740342;188;918726;-66
2020/12/20 06:28:20;;;;;;;52.37;19.53;;;;;;;;;;731348;188;1021523;-66
2020/12/20 06:30:46;;;;;;;49.03;19.57;;;;;;;;;;734766;189;918144;-66
2020/12/20 06:33:13;;;;;;;41.43;16.90;;;;;;;;;;734927;189;919352;-66
2020/12/20 06:35:38;;;;;;;41.73;18.87;;;;;;;;;;734049;189;918944;-66
2020/12/20 06:38:04;;;;;;;49.43;19.70;;;;;;;;;;733616;189;920447;-65
2020/12/20 06:40:45;;;;;;;41.03;17.93;;;;;;;;;;737870;188;919713;-66
2020/12/20 06:43:11;;;;;;;39.53;17.53;;;;;;;;;;728562;189;1756853;-67
2020/12/20 06:45:38;;;;;;;35.77;18.97;;;;;;;;;;728620;189;919152;-66
2020/12/20 06:48:06;;;;;;;44.40;16.50;;;;;;;;;;735114;186;915771;-66
2020/12/20 06:50:49;;;;;;;41.80;18.37;;;;;;;;;;735975;188;916274;-66
2020/12/20 06:53:15;;;;;;;36.63;17.13;;;;;;;;;;732977;188;919970;-65
2020/12/20 06:55:41;;;;;;;47.20;18.00;;;;;;;;;;741390;188;917611;-66
2020/12/20 06:58:06;;;;;;;41.97;18.13;;;;;;;;;;733996;188;918845;-65
2020/12/20 07:00:52;;;;;;;62.57;18.63;;;;;;;;;;736463;188;918855;-66
2020/12/20 07:03:33;;;;;;;49.03;20.87;;;;;;;;;;732850;188;1128310;-66
2020/12/20 07:06:15;;;;;;;34.73;18.00;;;;;;;;;;735152;188;919240;-65
2020/12/20 07:08:41;;;;;;;36.80;15.98;;;;;;;;;;732589;188;919605;-65
2020/12/20 07:11:09;;;;;;;40.23;16.63;;;;;;;;;;740202;189;916328;-66
2020/12/20 07:13:36;;;;;;;39.90;16.43;;;;;;;;;;735585;188;918652;-67
2020/12/20 07:16:05;;;;;;;41.22;17.65;;;;;;;;;;735127;189;919483;-66
2020/12/20 07:18:36;;;;;;;34.80;15.50;;;;;;;;;;732808;189;919606;-65
2020/12/20 07:21:02;;;;;;;47.47;16.50;;;;;;;;;;736188;188;918297;-66
2020/12/20 07:23:28;;;;;;;44.27;16.73;;;;;;;;;;734811;188;918263;-66
2020/12/20 07:25:54;;;;;;;38.83;18.80;;;;;;;;;;731640;188;926515;-66
2020/12/20 07:28:20;;;;;;;39.80;17.90;;;;;;;;;;731565;189;919051;-64
2020/12/20 07:30:46;;;;;;;42.57;16.63;;;;;;;;;;732569;189;919457;-66
2020/12/20 07:33:11;;;;;;;44.90;18.30;;;;;;;;;;734966;188;918970;-66
2020/12/20 07:35:46;;;;;;;38.87;17.90;;;;;;;;;;729228;189;1133755;-66
2020/12/20 07:38:12;;;;;;;46.27;19.13;;;;;;;;;;737402;188;918806;-66
2020/12/20 07:40:38;;;;;;;43.33;16.90;;;;;;;;;;733130;189;919043;-66
2020/12/20 07:43:04;;;;;;;40.75;17.70;;;;;;;;;;734624;189;918922;-68
2020/12/20 07:45:29;;;;;;;38.50;18.37;;;;;;;;;;730748;189;917998;-67
2020/12/20 07:47:55;;;;;;;38.07;15.90;;;;;;;;;;737347;188;630402;-67
2020/12/20 07:50:21;;;;;;;36.60;16.37;;;;;;;;;;731024;188;824221;-66
2020/12/20 07:52:48;;;;;;;33.13;16.20;;;;;;;;;;738946;188;1016063;-66
2020/12/20 07:55:14;;;;;;;44.60;18.70;;;;;;;;;;738277;188;917752;-66
2020/12/20 07:57:39;;;;;;;37.87;17.87;;;;;;;;;;734637;189;919117;-66
2020/12/20 08:00:05;;;;;;;46.40;18.63;;;;;;;;;;736259;188;937251;-66
2020/12/20 08:02:31;;;;;;;43.57;18.83;;;;;;;;;;739850;187;913100;-66
2020/12/20 08:05:05;;;;;;;35.47;15.73;;;;;;;;;;737780;187;915602;-66
2020/12/20 08:07:31;;;;;;;36.93;17.17;;;;;;;;;;733328;188;915608;-66
2020/12/20 08:09:57;;;;;;;39.78;17.37;;;;;;;;;;735531;188;919904;-66
2020/12/20 08:12:22;;;;;;;33.67;17.50;;;;;;;;;;727639;188;2995186;-67
2020/12/20 08:14:48;;;;;;;23.70;13.33;;;;;;;;;;734703;188;919241;-67
2020/12/20 08:17:14;;;;;;;30.90;14.97;;;;;;;;;;731010;188;919057;-67
2020/12/20 08:19:40;;;;;;;38.07;17.83;;;;;;;;;;738353;187;940356;-67
2020/12/20 08:22:07;;;;;;;38.67;18.50;;;;;;;;;;733469;189;919180;-66
2020/12/20 08:24:32;;;;;;;41.77;17.80;;;;;;;;;;735545;188;919929;-67
2020/12/20 08:26:59;;;;;;;41.27;17.97;;;;;;;;;;733562;188;898549;-66
2020/12/20 08:29:24;;;;;;;37.50;18.00;;;;;;;;;;735647;189;918634;-67
2020/12/20 08:31:50;;;;;;;28.27;13.80;;;;;;;;;;735185;188;919186;-66
2020/12/20 08:34:16;;;;;;;36.97;15.83;;;;;;;;;;728686;190;918741;-66
2020/12/20 08:36:43;;;;;;;35.10;16.47;;;;;;;;;;736990;189;919317;-66
2020/12/20 08:39:09;;;;;;;30.20;14.60;;;;;;;;;;733541;189;919766;-67
2020/12/20 08:41:34;;;;;;;37.27;14.73;;;;;;;;;;733545;189;918797;-66
2020/12/20 08:44:05;;;;;;;32.30;16.87;;;;;;;;;;736972;189;918577;-67
2020/12/20 08:46:31;;;;;;;32.13;17.87;;;;;;;;;;730243;189;918391;-66
2020/12/20 08:49:03;;;;;;;37.00;18.30;;;;;;;;;;730353;188;976536;-66
2020/12/20 08:51:29;;;;;;;35.30;16.37;;;;;;;;;;733520;189;919025;-65
2020/12/20 08:53:55;;;;;;;29.33;17.57;;;;;;;;;;735408;188;919160;-67
2020/12/20 08:56:22;;;;;;;40.00;16.47;;;;;;;;;;733768;189;1431159;-67
2020/12/20 08:58:48;;;;;;;41.73;20.10;;;;;;;;;;733851;189;918101;-66
2020/12/20 09:01:14;;;;;;;34.20;15.80;;;;;;;;;;735041;189;919032;-66
2020/12/20 09:03:40;;;;;;;34.70;12.40;;;;;;;;;;731480;188;919249;-67
2020/12/20 09:06:11;;;;;;;30.53;14.30;;;;;;;;;;730667;189;918607;-67
2020/12/20 09:08:37;;;;;;;30.00;13.73;;;;;;;;;;732399;188;918649;-66
2020/12/20 09:11:03;;;;;;;36.83;17.10;;;;;;;;;;740809;187;919001;-66
2020/12/20 09:13:29;;;;;;;31.10;14.77;;;;;;;;;;734319;188;919230;-66
2020/12/20 09:15:55;;;;;;;36.53;16.65;;;;;;;;;;736308;188;918620;-67
2020/12/20 09:18:25;;;;;;;35.33;16.37;;;;;;;;;;737563;188;918865;-65
2020/12/20 09:20:48;;;;;;;34.97;17.10;;;;;;;;;;734672;188;919121;-66
2020/12/20 09:23:18;;;;;;;37.80;18.40;;;;;;;;;;730354;188;929485;-66
2020/12/20 09:25:44;;;;;;;35.00;16.33;;;;;;;;;;732629;188;925038;-66
2020/12/20 09:28:11;;;;;;;32.10;14.83;;;;;;;;;;738365;188;919148;-67
2020/12/20 09:30:40;;;;;;;30.03;13.43;;;;;;;;;;736986;188;674935;-66
2020/12/20 09:33:12;;;;;;;30.93;14.60;;;;;;;;;;736732;189;917178;-66
2020/12/20 09:35:38;;;;;;;34.77;15.07;;;;;;;;;;732406;188;918728;-67
2020/12/20 09:38:04;;;;;;;29.67;14.30;;;;;;;;;;740037;189;918603;-66
2020/12/20 09:40:29;;;;;;;31.10;16.00;;;;;;;;;;736311;188;853392;-65
2020/12/20 09:42:55;;;;;;;29.47;14.60;;;;;;;;;;730162;188;919289;-66
2020/12/20 09:45:21;;;;;;;23.47;11.67;;;;;;;;;;732427;189;919091;-67
2020/12/20 09:47:47;;;;;;;32.53;16.37;;;;;;;;;;738264;188;918618;-66
2020/12/20 09:50:13;;;;;;;33.07;17.13;;;;;;;;;;733003;188;925720;-66
2020/12/20 09:52:39;;;;;;;25.73;12.07;;;;;;;;;;731291;189;918474;-66
2020/12/20 09:55:05;;;;;;;28.70;15.13;;;;;;;;;;719910;189;920248;-67
2020/12/20 09:57:30;;;;;;;26.90;13.17;;;;;;;;;;730651;188;918767;-67
2020/12/20 09:59:56;;;;;;;28.25;16.35;;;;;;;;;;730699;188;1123016;-67
2020/12/20 10:02:22;;;;;;;24.93;14.57;;;;;;;;;;739170;189;918676;-67
2020/12/20 10:04:48;;;;;;;36.70;16.53;;;;;;;;;;733828;188;919074;-66
2020/12/20 10:07:14;;;;;;;32.83;14.00;;;;;;;;;;730421;188;918682;-67
2020/12/20 10:09:40;;;;;;;33.23;15.27;;;;;;;;;;740040;189;918026;-67
2020/12/20 10:12:06;;;;;;;27.60;15.10;;;;;;;;;;732065;189;919070;-67
2020/12/20 10:14:32;;;;;;;31.93;14.53;;;;;;;;;;732119;189;1018470;-67
2020/12/20 10:16:57;;;;;;;28.20;13.43;;;;;;;;;;734747;188;945205;-65
2020/12/20 10:19:23;;;;;;;30.90;15.23;;;;;;;;;;734696;188;916180;-66
2020/12/20 10:21:49;;;;;;;39.17;16.00;;;;;;;;;;732227;188;914835;-67
2020/12/20 10:24:15;;;;;;;30.77;15.80;;;;;;;;;;735012;188;915630;-67
2020/12/20 10:26:41;;;;;;;26.40;14.20;;;;;;;;;;738991;187;914279;-66
2020/12/20 10:29:07;;;;;;;31.27;15.70;;;;;;;;;;736252;188;915814;-67
2020/12/20 10:31:33;;;;;;;32.80;16.50;;;;;;;;;;733294;188;929459;-67
2020/12/20 10:33:58;;;;;;;35.63;15.13;;;;;;;;;;740356;188;910149;-67
2020/12/20 10:36:26;;;;;;;40.70;16.47;;;;;;;;;;733382;188;923807;-67
2020/12/20 10:38:53;;;;;;;24.10;13.47;;;;;;;;;;737075;188;918684;-67
2020/12/20 10:41:18;;;;;;;32.53;15.17;;;;;;;;;;738989;189;918561;-67
2020/12/20 10:43:44;;;;;;;27.70;14.67;;;;;;;;;;732453;189;958373;-67
2020/12/20 10:46:10;;;;;;;25.43;12.30;;;;;;;;;;734746;189;944476;-66
2020/12/20 10:48:36;;;;;;;24.67;15.73;;;;;;;;;;733503;188;918401;-67
2020/12/20 10:51:02;;;;;;;35.53;15.98;;;;;;;;;;737846;189;918743;-67
2020/12/20 10:53:28;;;;;;;31.03;16.30;;;;;;;;;;733166;189;918775;-67
2020/12/20 10:55:54;;;;;;;29.87;14.98;;;;;;;;;;733372;188;918696;-67
2020/12/20 10:58:19;;;;;;;33.53;15.23;;;;;;;;;;739796;188;919079;-66
2020/12/20 11:00:45;;;;;;;27.50;15.20;;;;;;;;;;736094;189;916992;-67
2020/12/20 11:03:11;;;;;;;31.35;15.35;;;;;;;;;;732438;188;917945;-67
2020/12/20 11:05:37;;;;;;;26.67;16.20;;;;;;;;;;739305;188;918333;-68
2020/12/20 11:08:03;;;;;;;29.03;15.17;;;;;;;;;;732258;188;1092756;-67
2020/12/20 11:10:29;;;;;;;32.67;16.03;;;;;;;;;;734533;189;628114;-67
2020/12/20 11:12:54;;;;;;;36.47;17.07;;;;;;;;;;734453;188;631848;-67
2020/12/20 11:15:20;;;;;;;30.93;17.73;;;;;;;;;;733531;189;629324;-67
2020/12/20 11:17:47;;;;;;;31.70;15.50;;;;;;;;;;720757;190;918527;-67
2020/12/20 11:20:12;;;;;;;27.57;14.20;;;;;;;;;;733966;188;624963;-67
2020/12/20 11:22:38;;;;;;;30.13;15.43;;;;;;;;;;740145;189;920431;-67
2020/12/20 11:25:04;;;;;;;32.70;15.53;;;;;;;;;;730579;189;919658;-67
2020/12/20 11:27:30;;;;;;;31.30;14.27;;;;;;;;;;736188;188;919037;-67
2020/12/20 11:29:56;;;;;;;25.00;13.13;;;;;;;;;;736956;188;918756;-66
2020/12/20 11:32:21;;;;;;;28.17;13.90;;;;;;;;;;736181;188;914466;-66
2020/12/20 11:34:47;;;;;;;29.03;14.67;;;;;;;;;;734542;187;943372;-65
2020/12/20 11:37:13;;;;;;;30.23;13.77;;;;;;;;;;741494;188;915246;-66
2020/12/20 11:39:39;;;;;;;32.50;14.97;;;;;;;;;;735337;188;918551;-67
2020/12/20 11:42:05;;;;;;;26.93;13.83;;;;;;;;;;736469;188;927457;-67
2020/12/20 11:44:31;;;;;;;35.37;14.70;;;;;;;;;;733364;188;924596;-68
2020/12/20 11:46:57;;;;;;;30.60;15.10;;;;;;;;;;740285;188;1020923;-67
2020/12/20 11:49:22;;;;;;;25.77;14.20;;;;;;;;;;733126;188;919263;-67
2020/12/20 11:51:48;;;;;;;29.87;13.10;;;;;;;;;;738051;187;919047;-67
2020/12/20 11:54:14;;;;;;;33.37;15.23;;;;;;;;;;740068;189;920300;-67
2020/12/20 11:56:40;;;;;;;30.27;15.70;;;;;;;;;;733785;187;918372;-67
2020/12/20 11:59:09;;;;;;;36.60;16.57;;;;;;;;;;731144;188;918810;-67
2020/12/20 12:01:32;;;;;;;29.27;15.15;;;;;;;;;;734993;188;932422;-68
2020/12/20 12:03:58;;;;;;;28.10;16.10;;;;;;;;;;737789;188;918748;-68
2020/12/20 12:06:23;;;;;;;36.37;17.43;;;;;;;;;;733705;187;917432;-67
2020/12/20 12:08:49;;;;;;;39.87;16.17;;;;;;;;;;731807;188;921225;-65
2020/12/20 12:11:16;;;;;;;33.97;14.30;;;;;;;;;;726456;191;959216;-67
2020/12/20 12:13:42;;;;;;;33.80;15.53;;;;;;;;;;738681;188;913614;-65
2020/12/20 12:16:08;;;;;;;46.13;16.37;;;;;;;;;;729007;189;929215;-67
2020/12/20 12:18:34;;;;;;;38.77;15.73;;;;;;;;;;736570;188;918752;-67
2020/12/20 12:21:00;;;;;;;33.03;15.20;;;;;;;;;;736109;188;917670;-66
2020/12/20 12:23:25;;;;;;;26.45;14.63;;;;;;;;;;729059;188;1020851;-67
2020/12/20 12:25:54;;;;;;;26.53;15.53;;;;;;;;;;739902;188;918364;-67
2020/12/20 12:28:18;;;;;;;27.42;14.75;;;;;;;;;;734855;188;918728;-66
2020/12/20 12:30:44;;;;;;;34.73;15.47;;;;;;;;;;732770;188;1020277;-67
2020/12/20 12:33:10;;;;;;;23.33;13.73;;;;;;;;;;731994;189;919232;-65
2020/12/20 12:35:35;;;;;;;30.53;14.47;;;;;;;;;;732122;188;919530;-67
2020/12/20 12:38:01;;;;;;;31.20;16.00;;;;;;;;;;733191;189;918742;-67
2020/12/20 12:40:27;;;;;;;27.47;14.50;;;;;;;;;;729966;187;1021296;-66
2020/12/20 12:42:53;;;;;;;32.53;14.47;;;;;;;;;;740009;189;918044;-67
2020/12/20 12:45:19;;;;;;;26.57;13.63;;;;;;;;;;734591;188;920207;-65
2020/12/20 12:47:45;;;;;;;27.70;13.20;;;;;;;;;;734077;188;918509;-67
2020/12/20 12:50:11;;;;;;;28.97;11.77;;;;;;;;;;740376;187;919150;-66
2020/12/20 12:52:36;;;;;;;29.70;14.80;;;;;;;;;;737896;187;830585;-66
2020/12/20 12:55:02;;;;;;;32.53;13.60;;;;;;;;;;733680;187;919268;-65
2020/12/20 12:57:28;;;;;;;30.67;15.07;;;;;;;;;;736535;188;1047322;-67
2020/12/20 12:59:54;;;;;;;32.85;14.68;;;;;;;;;;734456;187;921636;-67
2020/12/20 13:02:20;;;;;;;32.20;15.03;;;;;;;;;;733146;188;918400;-67
2020/12/20 13:04:46;;;;;;;30.30;15.10;;;;;;;;;;732745;189;926405;-67
2020/12/20 13:07:11;;;;;;;32.03;15.80;;;;;;;;;;726179;190;918315;-67
2020/12/20 13:09:37;;;;;;;31.80;16.20;;;;;;;;;;734828;188;918632;-67
2020/12/20 13:12:04;;;;;;;28.13;14.97;;;;;;;;;;736374;188;918603;-66
2020/12/20 13:14:29;;;;;;;34.30;15.57;;;;;;;;;;739232;189;918563;-67
2020/12/20 13:16:55;;;;;;;27.23;12.83;;;;;;;;;;733743;187;918856;-66
2020/12/20 13:19:21;;;;;;;30.60;13.43;;;;;;;;;;735854;187;915438;-65
2020/12/20 13:21:47;;;;;;;24.57;13.93;;;;;;;;;;739794;188;918473;-66
2020/12/20 13:24:13;;;;;;;22.73;14.37;;;;;;;;;;728710;189;919093;-67
2020/12/20 13:26:39;;;;;;;29.40;13.17;;;;;;;;;;738525;188;651890;-67
2020/12/20 13:29:05;;;;;;;27.37;14.43;;;;;;;;;;731778;188;918034;-66
2020/12/20 13:31:31;;;;;;;33.40;14.77;;;;;;;;;;732167;191;918927;-65
2020/12/20 13:33:58;;;;;;;29.77;14.47;;;;;;;;;;731862;188;918488;-66
2020/12/20 13:36:25;;;;;;;26.83;15.60;;;;;;;;;;733763;188;918380;-66
2020/12/20 13:38:49;;;;;;;33.40;17.60;;;;;;;;;;726007;187;3419837;-66
2020/12/20 13:41:15;;;;;;;33.20;15.07;;;;;;;;;;735367;187;918469;-66
2020/12/20 13:43:41;;;;;;;26.47;15.47;;;;;;;;;;730303;188;902708;-66
2020/12/20 13:46:07;;;;;;;30.73;16.13;;;;;;;;;;742311;189;919347;-67
2020/12/20 13:48:35;;;;;;;30.55;15.15;;;;;;;;;;735506;189;919106;-66
2020/12/20 13:51:01;;;;;;;35.17;17.43;;;;;;;;;;736291;188;919237;-66
2020/12/20 13:53:27;;;;;;;26.90;16.33;;;;;;;;;;732829;189;1020839;-66
2020/12/20 13:55:53;;;;;;;48.17;17.83;;;;;;;;;;726777;190;919265;-67
2020/12/20 13:58:19;;;;;;;28.40;15.77;;;;;;;;;;730171;190;919440;-66